Time;durP1;ratioP1;P1;durP2;ratioP2;P2;SDS_P1;SDS_P2;PMS_P1;PMS_P2;Temp;Humidity;BMP_temperature;BMP_pressure;BME280_temperature;BME280_humidity;BME280_pressure;Samples;Min_cycle;Max_cycle;Signal;HPM_P1;HPM_P2
2023/12/20 00:01:05;;;;;;;58.00;27.17;;;;;;;4.59;100.00;99307.06;4229815;28;21724;-70
2023/12/20 00:03:32;;;;;;;56.00;27.20;;;;;;;4.57;100.00;99300.97;4228318;28;20238;-73
2023/12/20 00:06:08;;;;;;;59.17;27.67;;;;;;;4.60;100.00;99306.06;4236914;28;20284;-69
2023/12/20 00:08:35;;;;;;;60.33;29.03;;;;;;;4.63;100.00;99293.38;4234041;28;20239;-69
2023/12/20 00:11:01;;;;;;;62.83;28.40;;;;;;;4.58;100.00;99294.63;4237537;28;20477;-70
2023/12/20 00:13:28;;;;;;;65.77;29.43;;;;;;;4.56;100.00;99293.09;4235865;28;20235;-70
2023/12/20 00:15:55;;;;;;;59.50;29.57;;;;;;;4.57;100.00;99290.25;4241318;28;21268;-68
2023/12/20 00:18:22;;;;;;;55.30;26.73;;;;;;;4.57;100.00;99282.22;4255485;28;20250;-70
2023/12/20 00:20:48;;;;;;;57.67;28.37;;;;;;;4.57;100.00;99289.44;4227946;28;20611;-72
2023/12/20 00:23:15;;;;;;;55.23;28.23;;;;;;;4.60;100.00;99284.63;4233128;28;20798;-72
2023/12/20 00:25:41;;;;;;;56.47;28.60;;;;;;;4.62;100.00;99287.16;4235747;28;20227;-71
2023/12/20 00:28:08;;;;;;;59.27;29.60;;;;;;;4.56;100.00;99280.50;4221619;28;20359;-70
2023/12/20 00:30:36;;;;;;;59.10;29.27;;;;;;;4.58;100.00;99281.22;4232731;28;22032;-72
2023/12/20 00:33:03;;;;;;;51.00;26.37;;;;;;;4.61;100.00;99277.44;4230366;28;20239;-73
2023/12/20 00:35:29;;;;;;;59.10;29.53;;;;;;;4.59;100.00;99282.94;4240727;28;21090;-73
2023/12/20 00:37:58;;;;;;;58.83;28.77;;;;;;;4.63;100.00;99271.91;4233320;28;20696;-72
2023/12/20 00:40:25;;;;;;;56.80;26.87;;;;;;;4.61;100.00;99280.09;4224572;28;26489;-71
2023/12/20 00:42:51;;;;;;;57.17;29.17;;;;;;;4.59;100.00;99266.00;4240440;28;20640;-71
2023/12/20 00:45:18;;;;;;;60.27;28.77;;;;;;;4.65;100.00;99261.91;4239912;28;21655;-71
2023/12/20 00:47:45;;;;;;;48.93;26.20;;;;;;;4.63;100.00;99269.25;4243798;28;20418;-70
2023/12/20 00:50:12;;;;;;;56.60;27.83;;;;;;;4.64;100.00;99274.47;4230143;28;24997;-71
2023/12/20 00:52:39;;;;;;;56.17;26.13;;;;;;;4.65;100.00;99259.22;4225992;28;20232;-71
2023/12/20 00:55:06;;;;;;;53.07;27.07;;;;;;;4.65;100.00;99265.44;4233410;28;22926;-71
2023/12/20 00:57:32;;;;;;;55.87;26.87;;;;;;;4.65;100.00;99267.28;4237006;28;21771;-72
2023/12/20 00:59:59;;;;;;;58.23;26.60;;;;;;;4.75;100.00;99266.31;4222153;28;20238;-68
2023/12/20 01:02:25;;;;;;;55.20;27.43;;;;;;;4.68;100.00;99253.59;4219932;28;20420;-69
2023/12/20 01:04:52;;;;;;;51.77;27.00;;;;;;;4.66;100.00;99260.94;4221808;28;20705;-66
2023/12/20 01:07:18;;;;;;;52.87;26.50;;;;;;;4.65;100.00;99268.09;4242732;28;20230;-68
2023/12/20 01:09:45;;;;;;;54.00;26.27;;;;;;;4.69;100.00;99266.00;4225111;28;21082;-67
2023/12/20 01:12:12;;;;;;;56.87;27.67;;;;;;;4.66;100.00;99256.41;4250635;28;21319;-69
2023/12/20 01:14:39;;;;;;;53.07;25.93;;;;;;;4.66;100.00;99263.63;4237124;28;20672;-68
2023/12/20 01:17:06;;;;;;;51.20;27.30;;;;;;;4.67;100.00;99268.00;4237422;28;20238;-67
2023/12/20 01:19:32;;;;;;;51.07;25.70;;;;;;;4.66;100.00;99258.25;4240055;28;20238;-69
2023/12/20 01:21:59;;;;;;;53.63;27.77;;;;;;;4.69;100.00;99260.63;4237292;28;20296;-67
2023/12/20 01:24:26;;;;;;;58.83;28.67;;;;;;;4.67;100.00;99243.88;4234990;28;20311;-72
2023/12/20 01:26:52;;;;;;;51.20;26.87;;;;;;;4.68;100.00;99249.09;4231904;28;20700;-69
2023/12/20 01:29:20;;;;;;;56.53;26.40;;;;;;;4.70;100.00;99240.88;4230986;28;20230;-72
2023/12/20 01:31:46;;;;;;;48.83;25.63;;;;;;;4.70;100.00;99249.78;4241718;28;20936;-69
2023/12/20 01:34:13;;;;;;;51.57;26.33;;;;;;;4.73;100.00;99244.13;4237457;28;21066;-69
2023/12/20 01:36:40;;;;;;;52.63;26.47;;;;;;;4.71;100.00;99240.78;4240043;28;20292;-68
2023/12/20 01:39:06;;;;;;;46.93;25.47;;;;;;;4.71;100.00;99237.22;4232221;28;20230;-70
2023/12/20 01:41:50;;;;;;;52.73;25.33;;;;;;;4.71;100.00;99240.78;4228789;28;21930;-68
2023/12/20 01:44:17;;;;;;;51.90;25.50;;;;;;;4.71;100.00;99239.91;4245951;28;20237;-69
2023/12/20 01:46:44;;;;;;;47.70;25.57;;;;;;;4.70;100.00;99246.25;4248946;28;21112;-69
2023/12/20 01:49:11;;;;;;;51.67;25.50;;;;;;;4.69;100.00;99236.50;4240324;28;20246;-69
2023/12/20 01:51:38;;;;;;;50.57;25.63;;;;;;;4.68;100.00;99227.63;4235476;28;20235;-69
2023/12/20 01:54:05;;;;;;;47.37;23.80;;;;;;;4.73;100.00;99246.81;4235234;28;20241;-67
2023/12/20 01:56:32;;;;;;;46.07;23.40;;;;;;;4.72;100.00;99228.19;4232609;28;20244;-68
2023/12/20 01:59:00;;;;;;;41.87;22.13;;;;;;;4.68;100.00;99218.75;4238703;28;20226;-67
2023/12/20 02:01:28;;;;;;;39.60;20.90;;;;;;;4.69;100.00;99226.66;4236946;28;20285;-70
2023/12/20 02:03:56;;;;;;;42.43;22.37;;;;;;;4.70;100.00;99225.66;4230791;28;20234;-67
2023/12/20 02:06:29;;;;;;;41.00;21.93;;;;;;;4.70;100.00;99225.66;4228955;28;20280;-69
2023/12/20 02:08:56;;;;;;;42.97;21.83;;;;;;;4.68;100.00;99222.28;4229486;28;20262;-69
2023/12/20 02:11:23;;;;;;;43.13;21.93;;;;;;;4.70;100.00;99220.31;4236546;28;20642;-67
2023/12/20 02:13:49;;;;;;;41.47;20.80;;;;;;;4.70;100.00;99225.66;4234729;28;20245;-68
2023/12/20 02:16:16;;;;;;;41.33;21.20;;;;;;;4.66;100.00;99218.03;4224885;28;21855;-69
2023/12/20 02:18:44;;;;;;;39.63;20.70;;;;;;;4.65;100.00;99208.31;4228613;28;20338;-67
2023/12/20 02:21:11;;;;;;;41.20;20.40;;;;;;;4.64;100.00;99218.19;4236304;28;20249;-67
2023/12/20 02:23:37;;;;;;;37.73;18.93;;;;;;;4.66;100.00;99210.84;4234326;28;22109;-68
2023/12/20 02:26:04;;;;;;;36.47;18.57;;;;;;;4.69;100.00;99209.69;4226323;28;20325;-70
2023/12/20 02:28:31;;;;;;;36.17;17.13;;;;;;;4.65;100.00;99203.78;4234065;28;20239;-68
2023/12/20 02:30:58;;;;;;;31.27;16.37;;;;;;;4.64;100.00;99196.75;4230572;28;20250;-69
2023/12/20 02:33:25;;;;;;;28.80;15.10;;;;;;;4.63;100.00;99191.50;4239361;28;20277;-68
2023/12/20 02:35:52;;;;;;;26.63;13.93;;;;;;;4.66;100.00;99192.06;4227992;28;20234;-68
2023/12/20 02:38:19;;;;;;;24.93;13.10;;;;;;;4.63;100.00;99191.50;4243364;28;22925;-67
2023/12/20 02:40:45;;;;;;;16.67;10.37;;;;;;;4.63;100.00;99189.69;4239700;28;21634;-70
2023/12/20 02:43:15;;;;;;;19.17;11.07;;;;;;;4.62;100.00;99171.91;4234394;28;20234;-69
2023/12/20 02:45:42;;;;;;;17.50;9.50;;;;;;;4.65;100.00;99176.97;4216497;28;20225;-70
2023/12/20 02:48:09;;;;;;;20.13;10.17;;;;;;;4.63;100.00;99175.41;4242172;28;20539;-68
2023/12/20 02:50:35;;;;;;;16.10;9.07;;;;;;;4.64;100.00;99180.66;4247152;28;20258;-68
2023/12/20 02:53:02;;;;;;;16.80;8.87;;;;;;;4.64;100.00;99178.00;4222281;28;21116;-69
2023/12/20 02:55:29;;;;;;;18.67;8.87;;;;;;;4.65;100.00;99181.50;4230783;28;23892;-70
2023/12/20 02:57:55;;;;;;;15.27;8.80;;;;;;;4.68;100.00;99194.63;4238116;28;25214;-65
2023/12/20 03:00:22;;;;;;;16.83;9.00;;;;;;;4.66;100.00;99193.91;4230707;28;20302;-68
2023/12/20 03:02:48;;;;;;;15.60;9.17;;;;;;;4.69;100.00;99178.41;4235666;28;21287;-68
2023/12/20 03:05:15;;;;;;;16.10;9.30;;;;;;;4.74;100.00;99176.13;4227868;28;20227;-68
2023/12/20 03:07:41;;;;;;;16.40;9.70;;;;;;;4.66;100.00;99175.16;4237079;28;20909;-67
2023/12/20 03:10:09;;;;;;;17.73;9.63;;;;;;;4.69;100.00;99177.53;4236452;28;20249;-67
2023/12/20 03:12:46;;;;;;;14.97;9.40;;;;;;;4.73;100.00;99182.47;4244177;28;20235;-70
2023/12/20 03:15:12;;;;;;;16.57;9.83;;;;;;;4.68;100.00;99179.38;4226711;28;20415;-69
2023/12/20 03:17:39;;;;;;;17.57;9.80;;;;;;;4.67;100.00;99161.59;4233225;28;20244;-71
2023/12/20 03:20:06;;;;;;;16.10;9.20;;;;;;;4.69;100.00;99159.63;4242063;28;22706;-68
2023/12/20 03:22:33;;;;;;;17.30;9.30;;;;;;;4.69;100.00;99174.84;4233451;28;20338;-71
2023/12/20 03:24:59;;;;;;;14.93;9.07;;;;;;;4.74;100.00;99186.03;4228858;28;20231;-70
2023/12/20 03:27:26;;;;;;;16.67;9.10;;;;;;;4.65;100.00;99176.97;4233684;28;20310;-69
2023/12/20 03:29:52;;;;;;;15.93;9.13;;;;;;;4.71;100.00;99179.13;4237809;28;20672;-69
2023/12/20 03:32:19;;;;;;;16.97;8.50;;;;;;;4.67;100.00;99166.13;4235119;28;20413;-69
2023/12/20 03:34:46;;;;;;;16.23;9.50;;;;;;;4.73;100.00;99173.59;4241923;28;21584;-69
2023/12/20 03:37:13;;;;;;;17.10;10.07;;;;;;;4.66;100.00;99176.00;4259255;28;20308;-69
2023/12/20 03:39:39;;;;;;;16.03;8.80;;;;;;;4.71;100.00;99162.16;4241810;28;20290;-69
2023/12/20 03:42:06;;;;;;;16.33;9.00;;;;;;;4.69;100.00;99154.28;4245956;28;20234;-69
2023/12/20 03:44:32;;;;;;;16.00;8.97;;;;;;;4.64;100.00;99161.91;4237306;28;20230;-68
2023/12/20 03:46:59;;;;;;;14.60;9.17;;;;;;;4.65;100.00;99160.06;4240383;28;20231;-69
2023/12/20 03:49:25;;;;;;;14.63;8.97;;;;;;;4.68;100.00;99165.16;4240294;28;20247;-70
2023/12/20 03:51:52;;;;;;;16.10;9.13;;;;;;;4.64;100.00;99164.59;4235826;28;20226;-69
2023/12/20 03:54:19;;;;;;;14.83;8.87;;;;;;;4.63;100.00;99164.69;4234824;28;20234;-68
2023/12/20 03:56:45;;;;;;;15.80;9.47;;;;;;;4.70;100.00;99169.38;4243693;28;20234;-68
2023/12/20 03:59:12;;;;;;;17.03;9.63;;;;;;;4.66;100.00;99154.53;4244442;28;21144;-69
2023/12/20 04:01:38;;;;;;;14.97;9.40;;;;;;;4.63;100.00;99157.53;4240854;28;20998;-68
2023/12/20 04:04:05;;;;;;;15.63;9.20;;;;;;;4.62;100.00;99149.59;4243018;28;20988;-71
2023/12/20 04:06:31;;;;;;;16.87;9.43;;;;;;;4.67;100.00;99163.44;4239450;28;21875;-69
2023/12/20 04:08:58;;;;;;;15.20;9.03;;;;;;;4.66;100.00;99173.31;4241596;28;21278;-70
2023/12/20 04:11:25;;;;;;;17.23;9.70;;;;;;;4.62;100.00;99155.81;4235665;28;20659;-69
2023/12/20 04:13:51;;;;;;;18.43;10.13;;;;;;;4.60;100.00;99152.44;4234446;28;20230;-69
2023/12/20 04:16:18;;;;;;;19.77;11.13;;;;;;;4.59;100.00;99161.47;4239791;28;20921;-69
2023/12/20 04:18:44;;;;;;;20.03;11.43;;;;;;;4.57;100.00;99160.78;4237712;28;21473;-70
2023/12/20 04:21:11;;;;;;;23.03;11.60;;;;;;;4.58;100.00;99165.97;4233178;28;22083;-71
2023/12/20 04:23:38;;;;;;;22.77;12.83;;;;;;;4.55;100.00;99155.53;4233849;28;21610;-70
2023/12/20 04:26:04;;;;;;;24.20;13.23;;;;;;;4.61;100.00;99151.44;4251401;28;20227;-70
2023/12/20 04:28:31;;;;;;;27.37;14.10;;;;;;;4.57;100.00;99163.44;4241305;28;21522;-68
2023/12/20 04:30:58;;;;;;;29.80;15.17;;;;;;;4.59;100.00;99169.50;4226970;28;20283;-69
2023/12/20 04:33:24;;;;;;;25.73;14.90;;;;;;;4.59;100.00;99154.28;4251109;28;20676;-68
2023/12/20 04:35:51;;;;;;;30.53;16.03;;;;;;;4.68;100.00;99157.94;4242945;28;21748;-70
2023/12/20 04:38:18;;;;;;;30.93;16.23;;;;;;;4.62;100.00;99160.31;4240214;28;22852;-69
2023/12/20 04:40:44;;;;;;;31.07;15.33;;;;;;;4.63;100.00;99156.66;4219788;28;21479;-68
2023/12/20 04:43:11;;;;;;;29.70;15.87;;;;;;;4.63;100.00;99178.09;4247151;28;20385;-69
2023/12/20 04:45:37;;;;;;;28.03;14.77;;;;;;;4.66;100.00;99172.47;4241769;28;20234;-69
2023/12/20 04:48:04;;;;;;;30.83;14.73;;;;;;;4.64;100.00;99166.41;4238764;28;20302;-69
2023/12/20 04:50:31;;;;;;;27.77;15.03;;;;;;;4.60;100.00;99163.16;4234933;28;22992;-69
2023/12/20 04:52:58;;;;;;;29.43;15.43;;;;;;;4.58;100.00;99162.44;4251155;28;21108;-69
2023/12/20 04:55:24;;;;;;;32.00;14.87;;;;;;;4.63;100.00;99159.34;4258176;28;20629;-67
2023/12/20 04:57:51;;;;;;;30.37;15.63;;;;;;;4.59;100.00;99158.78;4234077;28;20305;-69
2023/12/20 05:00:17;;;;;;;30.07;15.47;;;;;;;4.62;100.00;99161.19;4239112;28;24419;-70
2023/12/20 05:02:44;;;;;;;28.03;14.93;;;;;;;4.64;100.00;99153.00;4237166;28;20695;-68
2023/12/20 05:05:11;;;;;;;29.30;15.00;;;;;;;4.59;100.00;99148.91;4237698;28;20237;-70
2023/12/20 05:07:37;;;;;;;31.63;15.77;;;;;;;4.55;100.00;99150.16;4245936;28;20727;-68
2023/12/20 05:10:05;;;;;;;33.80;15.97;;;;;;;4.59;100.00;99148.91;4238006;28;20744;-68
2023/12/20 05:12:32;;;;;;;29.57;15.23;;;;;;;4.64;100.00;99158.34;4236802;28;25744;-69
2023/12/20 05:14:59;;;;;;;32.17;16.17;;;;;;;4.65;100.00;99152.84;4239835;28;20296;-69
2023/12/20 05:17:26;;;;;;;34.43;16.27;;;;;;;4.61;100.00;99140.72;4242925;28;20231;-69
2023/12/20 05:19:52;;;;;;;31.93;16.17;;;;;;;4.66;100.00;99140.31;4226171;28;20231;-69
2023/12/20 05:22:20;;;;;;;32.13;16.07;;;;;;;4.58;100.00;99136.50;4239384;28;20241;-71
2023/12/20 05:24:47;;;;;;;33.60;17.50;;;;;;;4.60;100.00;99139.03;4239539;28;20239;-71
2023/12/20 05:27:13;;;;;;;35.27;17.30;;;;;;;4.60;100.00;99147.94;4236343;28;21664;-69
2023/12/20 05:29:40;;;;;;;33.60;17.83;;;;;;;4.59;100.00;99140.88;4242578;28;20328;-68
2023/12/20 05:32:06;;;;;;;32.83;16.30;;;;;;;4.59;100.00;99140.00;4243581;28;20292;-70
2023/12/20 05:34:33;;;;;;;36.27;18.07;;;;;;;4.65;100.00;99138.59;4240784;28;22811;-69
2023/12/20 05:37:01;;;;;;;34.40;17.30;;;;;;;4.57;100.00;99133.97;4231411;28;20246;-67
2023/12/20 05:39:28;;;;;;;35.50;17.77;;;;;;;4.55;100.00;99131.41;4251191;28;20246;-68
2023/12/20 05:41:54;;;;;;;36.67;18.23;;;;;;;4.54;100.00;99137.75;4241330;28;20231;-67
2023/12/20 05:44:21;;;;;;;38.53;18.50;;;;;;;4.55;100.00;99143.97;4232459;28;22225;-69
2023/12/20 05:46:47;;;;;;;36.83;19.00;;;;;;;4.54;100.00;99132.41;4236490;28;22227;-69
2023/12/20 05:49:14;;;;;;;42.20;20.47;;;;;;;4.54;100.00;99128.88;4244693;28;20270;-70
2023/12/20 05:51:40;;;;;;;46.27;19.97;;;;;;;4.59;100.00;99137.34;4236208;28;20269;-68
2023/12/20 05:54:08;;;;;;;39.93;19.33;;;;;;;4.55;100.00;99126.06;4239329;28;20231;-71
2023/12/20 05:56:35;;;;;;;39.10;18.23;;;;;;;4.57;100.00;99139.34;4231136;28;20249;-71
2023/12/20 05:59:02;;;;;;;45.93;19.00;;;;;;;4.54;100.00;99131.56;4235977;28;20233;-70
2023/12/20 06:01:28;;;;;;;40.07;18.57;;;;;;;4.53;100.00;99129.88;4235332;28;25880;-69
2023/12/20 06:03:55;;;;;;;40.63;18.60;;;;;;;4.51;100.00;99135.38;4249853;28;20239;-67
2023/12/20 06:06:22;;;;;;;38.53;18.83;;;;;;;4.51;100.00;99131.81;4230402;28;20654;-71
2023/12/20 06:08:49;;;;;;;43.90;19.10;;;;;;;4.51;100.00;99132.69;4226974;28;20424;-69
2023/12/20 06:11:15;;;;;;;46.50;20.27;;;;;;;4.56;100.00;99141.16;4254364;28;20239;-70
2023/12/20 06:13:42;;;;;;;43.00;18.37;;;;;;;4.51;100.00;99143.41;4224181;28;20235;-69
2023/12/20 06:16:09;;;;;;;43.20;18.43;;;;;;;4.50;100.00;99136.34;4235386;28;20239;-70
2023/12/20 06:18:36;;;;;;;41.40;18.60;;;;;;;4.50;100.00;99136.34;4236655;28;20246;-70
2023/12/20 06:21:04;;;;;;;39.37;18.23;;;;;;;4.49;100.00;99136.50;4236223;28;20231;-70
2023/12/20 06:23:31;;;;;;;41.83;18.37;;;;;;;4.45;100.00;99127.91;4231024;28;20321;-70
2023/12/20 06:25:57;;;;;;;38.40;17.50;;;;;;;4.47;100.00;99130.44;4232593;28;20225;-69
2023/12/20 06:28:24;;;;;;;39.80;17.47;;;;;;;4.48;100.00;99141.00;4246466;28;21802;-70
2023/12/20 06:30:52;;;;;;;37.37;17.77;;;;;;;4.49;100.00;99133.81;4234210;28;20238;-69
2023/12/20 06:33:21;;;;;;;37.77;16.27;;;;;;;4.43;100.00;99144.09;4251626;28;20237;-70
2023/12/20 06:35:48;;;;;;;37.17;16.70;;;;;;;4.46;100.00;99144.81;4238581;28;20284;-67
2023/12/20 06:38:14;;;;;;;35.40;16.47;;;;;;;4.49;100.00;99142.69;4240161;28;20573;-71
2023/12/20 06:40:42;;;;;;;38.53;16.27;;;;;;;4.46;100.00;99139.44;4223851;28;20979;-69
2023/12/20 06:43:09;;;;;;;38.00;16.57;;;;;;;4.46;100.00;99147.50;4243741;28;20373;-71
2023/12/20 06:45:49;;;;;;;37.97;15.70;;;;;;;4.45;100.00;99146.66;4248638;28;20323;-68
2023/12/20 06:48:16;;;;;;;38.40;16.73;;;;;;;4.43;100.00;99143.25;4238972;28;25050;-69
2023/12/20 06:50:43;;;;;;;37.90;16.63;;;;;;;4.43;100.00;99146.78;4243695;28;20630;-69
2023/12/20 06:53:09;;;;;;;39.20;16.93;;;;;;;4.43;100.00;99135.22;4230459;28;20246;-74
2023/12/20 06:55:37;;;;;;;34.97;16.27;;;;;;;4.43;100.00;99145.94;4236474;28;20250;-70
2023/12/20 06:58:04;;;;;;;40.40;19.47;;;;;;;4.46;100.00;99137.59;4231426;28;25808;-73
2023/12/20 07:00:32;;;;;;;39.70;16.77;;;;;;;4.47;100.00;99139.31;4242907;28;20342;-73
2023/12/20 07:02:59;;;;;;;39.00;18.13;;;;;;;4.44;100.00;99136.91;4233133;28;20308;-70
2023/12/20 07:05:26;;;;;;;42.87;17.70;;;;;;;4.46;100.00;99137.59;4228923;28;20332;-71
2023/12/20 07:07:53;;;;;;;42.47;18.50;;;;;;;4.44;100.00;99135.06;4244470;28;20276;-70
2023/12/20 07:10:20;;;;;;;37.13;17.07;;;;;;;4.47;100.00;99127.75;4255885;28;21136;-71
2023/12/20 07:12:48;;;;;;;42.67;18.00;;;;;;;4.46;100.00;99137.59;4229297;28;20235;-70
2023/12/20 07:15:15;;;;;;;39.50;17.97;;;;;;;4.48;100.00;99142.84;4234084;28;20239;-71
2023/12/20 07:17:42;;;;;;;42.03;17.57;;;;;;;4.54;100.00;99140.44;4229714;28;20238;-72
2023/12/20 07:20:10;;;;;;;46.30;17.83;;;;;;;4.52;100.00;99138.88;4242516;28;20237;-71
2023/12/20 07:22:38;;;;;;;43.13;19.30;;;;;;;4.54;100.00;99148.47;4234967;28;21510;-72
2023/12/20 07:25:05;;;;;;;43.97;17.97;;;;;;;4.56;100.00;99157.22;4244169;28;21608;-72
2023/12/20 07:27:31;;;;;;;43.33;17.17;;;;;;;4.52;100.00;99155.81;4225894;28;22992;-71
2023/12/20 07:29:58;;;;;;;38.77;16.57;;;;;;;4.49;100.00;99145.38;4248066;28;20231;-71
2023/12/20 07:32:25;;;;;;;38.73;16.57;;;;;;;4.49;100.00;99136.50;4245574;28;26223;-71
2023/12/20 07:34:51;;;;;;;43.03;18.33;;;;;;;4.51;100.00;99143.41;4238357;28;21788;-72
2023/12/20 07:37:18;;;;;;;40.13;17.37;;;;;;;4.50;100.00;99144.41;4237156;28;20242;-73
2023/12/20 07:39:45;;;;;;;38.30;17.03;;;;;;;4.52;100.00;99141.56;4238312;28;20238;-71
2023/12/20 07:42:11;;;;;;;43.40;16.97;;;;;;;4.49;100.00;99148.06;4238671;28;20228;-73
2023/12/20 07:44:38;;;;;;;41.53;16.77;;;;;;;4.54;100.00;99145.78;4232492;28;22310;-71
2023/12/20 07:47:05;;;;;;;39.00;17.23;;;;;;;4.54;100.00;99139.59;4249593;28;21224;-71
2023/12/20 07:49:32;;;;;;;45.00;17.57;;;;;;;4.49;100.00;99141.88;4242301;28;20219;-70
2023/12/20 07:51:59;;;;;;;36.17;16.33;;;;;;;4.49;100.00;99144.53;4236190;28;22983;-73
2023/12/20 07:54:25;;;;;;;39.37;16.63;;;;;;;4.54;100.00;99142.28;4239880;28;20611;-73
2023/12/20 07:56:52;;;;;;;37.20;16.70;;;;;;;4.53;100.00;99136.06;4239628;28;21060;-70
2023/12/20 07:59:19;;;;;;;35.43;16.03;;;;;;;4.46;100.00;99126.88;4225460;28;20237;-71
2023/12/20 08:01:58;;;;;;;35.50;16.50;;;;;;;4.48;100.00;99132.13;4239059;28;20234;-75
2023/12/20 08:04:25;;;;;;;32.37;15.50;;;;;;;4.44;100.00;99140.44;4237046;28;20300;-72
2023/12/20 08:06:51;;;;;;;41.77;16.77;;;;;;;4.45;100.00;99143.97;4231250;28;20235;-72
2023/12/20 08:09:19;;;;;;;37.10;16.17;;;;;;;4.42;100.00;99134.38;4229725;28;23985;-72
2023/12/20 08:11:46;;;;;;;36.80;16.23;;;;;;;4.42;100.00;99137.03;4235496;28;22216;-73
2023/12/20 08:14:13;;;;;;;35.57;15.37;;;;;;;4.50;100.00;99133.69;4235393;28;20227;-73
2023/12/20 08:16:41;;;;;;;34.23;16.03;;;;;;;4.48;100.00;99134.81;4232293;28;20302;-70
2023/12/20 08:19:07;;;;;;;34.23;14.93;;;;;;;4.47;100.00;99138.47;4248752;28;20236;-71
2023/12/20 08:21:34;;;;;;;35.07;15.27;;;;;;;4.48;100.00;99126.78;4271708;28;21988;-72
2023/12/20 08:24:05;;;;;;;35.30;15.17;;;;;;;4.46;100.00;99132.25;4253649;28;20514;-72
2023/12/20 08:26:32;;;;;;;34.30;14.43;;;;;;;4.44;100.00;99132.41;4269951;28;21603;-70
2023/12/20 08:28:58;;;;;;;37.87;14.70;;;;;;;4.56;100.00;99132.28;4258716;28;21091;-71
2023/12/20 08:31:28;;;;;;;31.47;14.57;;;;;;;4.49;100.00;99126.63;4266269;28;20238;-70
2023/12/20 08:33:55;;;;;;;34.30;14.70;;;;;;;4.47;100.00;99123.22;4234495;28;23885;-72
2023/12/20 08:36:23;;;;;;;34.10;14.97;;;;;;;4.44;100.00;99124.34;4241506;28;20408;-72
2023/12/20 08:38:50;;;;;;;30.17;13.90;;;;;;;4.49;100.00;99123.94;4243614;28;21146;-71
2023/12/20 08:41:18;;;;;;;34.90;15.00;;;;;;;4.47;100.00;99125.91;4235417;28;22468;-72
2023/12/20 08:43:44;;;;;;;35.73;16.00;;;;;;;4.48;100.00;99122.25;4254948;28;20277;-71
2023/12/20 08:46:12;;;;;;;33.77;14.37;;;;;;;4.50;100.00;99125.63;4244307;28;20331;-71
2023/12/20 08:48:39;;;;;;;36.90;14.70;;;;;;;4.61;100.00;99124.66;4242795;28;23655;-71
2023/12/20 08:51:09;;;;;;;32.57;14.93;;;;;;;4.54;100.00;99129.72;4266829;28;20247;-70
2023/12/20 08:53:36;;;;;;;32.27;14.23;;;;;;;4.52;100.00;99120.13;4251241;28;20827;-71
2023/12/20 08:56:03;;;;;;;37.50;14.90;;;;;;;4.57;100.00;99125.94;4242658;28;21641;-71
2023/12/20 08:58:29;;;;;;;37.27;14.47;;;;;;;4.54;100.00;99131.56;4236470;28;21580;-70
2023/12/20 09:00:57;;;;;;;31.93;13.80;;;;;;;4.51;100.00;99123.78;4250615;28;20292;-70
2023/12/20 09:03:24;;;;;;;32.60;14.23;;;;;;;4.53;100.00;99129.88;4242489;28;20250;-68
2023/12/20 09:05:51;;;;;;;28.20;12.93;;;;;;;4.52;100.00;99128.16;4236864;28;20326;-71
2023/12/20 09:08:18;;;;;;;29.30;13.60;;;;;;;4.50;100.00;99108.69;4251764;28;20311;-71
2023/12/20 09:10:44;;;;;;;27.60;12.87;;;;;;;4.52;100.00;99118.31;4247456;28;20376;-69
2023/12/20 09:13:11;;;;;;;29.17;13.27;;;;;;;4.51;100.00;99111.25;4242667;28;22322;-68
2023/12/20 09:15:38;;;;;;;30.53;12.93;;;;;;;4.50;100.00;99111.38;4249277;28;20231;-67
2023/12/20 09:18:05;;;;;;;38.00;13.47;;;;;;;4.49;100.00;99117.75;4272981;28;20250;-72
2023/12/20 09:20:33;;;;;;;36.73;13.90;;;;;;;4.52;100.00;99102.22;4246158;28;20310;-69
2023/12/20 09:23:00;;;;;;;31.33;14.67;;;;;;;4.47;100.00;99107.16;4261446;28;20241;-70
2023/12/20 09:25:28;;;;;;;33.00;14.50;;;;;;;4.51;100.00;99100.53;4240346;28;23493;-69
2023/12/20 09:27:55;;;;;;;40.07;14.83;;;;;;;4.52;100.00;99096.00;4237768;28;20235;-69
2023/12/20 09:30:22;;;;;;;30.27;13.60;;;;;;;4.51;100.00;99089.81;4242500;28;20303;-69
2023/12/20 09:32:56;;;;;;;29.23;13.00;;;;;;;4.53;100.00;99087.81;4233673;28;20246;-71
2023/12/20 09:35:23;;;;;;;29.70;13.90;;;;;;;4.54;100.00;99083.31;4242207;28;20635;-70
2023/12/20 09:37:50;;;;;;;36.07;13.93;;;;;;;4.55;100.00;99079.66;4263495;28;24047;-69
2023/12/20 09:40:20;;;;;;;31.73;13.67;;;;;;;4.57;100.00;99081.19;4246054;28;21555;-69
2023/12/20 09:42:58;;;;;;;34.17;13.40;;;;;;;4.64;100.00;99088.66;4254135;28;20401;-70
2023/12/20 09:45:25;;;;;;;29.80;13.00;;;;;;;4.63;100.00;99082.47;4220196;28;23624;-69
2023/12/20 09:47:56;;;;;;;25.37;13.03;;;;;;;4.59;100.00;99083.72;4240682;28;22305;-69
2023/12/20 09:50:23;;;;;;;31.33;13.53;;;;;;;4.62;100.00;99074.56;4249318;28;20226;-69
2023/12/20 09:52:51;;;;;;;26.53;12.50;;;;;;;4.58;100.00;99080.22;4243882;28;21171;-71
2023/12/20 09:55:19;;;;;;;26.33;12.70;;;;;;;4.59;100.00;99078.38;4229679;28;20236;-70
2023/12/20 09:57:47;;;;;;;25.90;12.70;;;;;;;4.60;100.00;99072.03;4237478;28;25721;-68
2023/12/20 10:00:16;;;;;;;24.57;12.30;;;;;;;4.59;100.00;99068.50;4202699;28;20384;-72
2023/12/20 10:02:59;;;;;;;27.37;12.33;;;;;;;4.62;100.00;99070.06;4244909;28;20234;-72
2023/12/20 10:05:31;;;;;;;24.80;12.43;;;;;;;4.58;100.00;99072.19;4240319;28;20465;-70
2023/12/20 10:07:59;;;;;;;23.77;11.83;;;;;;;4.57;100.00;99059.75;4245443;28;20234;-72
2023/12/20 10:10:26;;;;;;;25.90;13.20;;;;;;;4.57;100.00;99066.97;4246683;28;22135;-73
2023/12/20 10:13:09;;;;;;;27.33;12.33;;;;;;;4.60;100.00;99069.34;4244992;28;20232;-70
2023/12/20 10:15:37;;;;;;;28.80;13.57;;;;;;;4.56;100.00;99071.47;4238174;28;20275;-72
2023/12/20 10:18:05;;;;;;;25.17;13.03;;;;;;;4.56;100.00;99071.47;4245805;28;20235;-71
2023/12/20 10:20:32;;;;;;;26.50;12.87;;;;;;;4.59;100.00;99065.84;4245281;28;20235;-71
2023/12/20 10:23:00;;;;;;;24.87;13.00;;;;;;;4.55;100.00;99050.19;4244142;28;21694;-72
2023/12/20 10:25:27;;;;;;;24.03;11.70;;;;;;;4.58;100.00;99052.56;4234560;28;21524;-72
2023/12/20 10:28:13;;;;;;;25.97;12.33;;;;;;;4.58;100.00;99049.88;4254260;28;22609;-72
2023/12/20 10:30:41;;;;;;;24.03;12.30;;;;;;;4.56;100.00;99047.34;4239608;28;20249;-73
2023/12/20 10:33:09;;;;;;;25.43;12.97;;;;;;;4.59;100.00;99036.34;4238692;28;20258;-73
2023/12/20 10:35:38;;;;;;;26.97;13.43;;;;;;;4.63;100.00;99044.09;4241031;28;20239;-72
2023/12/20 10:38:07;;;;;;;29.00;14.37;;;;;;;4.59;100.00;99047.06;4243995;28;20249;-72
2023/12/20 10:40:36;;;;;;;25.90;13.47;;;;;;;4.59;100.00;99031.00;4231815;28;20604;-71
2023/12/20 10:43:05;;;;;;;22.80;11.43;;;;;;;4.60;100.00;99038.03;4241173;28;20640;-70
2023/12/20 10:45:32;;;;;;;25.83;12.63;;;;;;;4.62;100.00;99042.38;4241836;28;20310;-69
2023/12/20 10:47:59;;;;;;;23.07;12.27;;;;;;;4.62;100.00;99037.91;4235830;28;20995;-72
2023/12/20 10:50:28;;;;;;;24.67;11.77;;;;;;;4.62;100.00;99045.94;4269280;28;20501;-71
2023/12/20 10:52:55;;;;;;;27.87;13.30;;;;;;;4.66;100.00;99043.81;4241082;28;20334;-69
2023/12/20 10:55:23;;;;;;;23.60;12.00;;;;;;;4.66;100.00;99039.28;4242149;28;20230;-70
2023/12/20 10:58:19;;;;;;;25.23;11.90;;;;;;;4.64;100.00;99035.91;4243480;28;20245;-70
2023/12/20 11:00:50;;;;;;;24.13;12.03;;;;;;;4.64;100.00;99033.25;4251318;28;20839;-69
2023/12/20 11:03:17;;;;;;;24.80;12.10;;;;;;;4.69;100.00;99020.25;4234170;28;25505;-69
2023/12/20 11:05:57;;;;;;;21.87;11.70;;;;;;;4.70;100.00;99013.91;4235059;28;21213;-70
2023/12/20 11:08:39;;;;;;;22.90;11.90;;;;;;;4.66;100.00;99017.00;4251321;28;20230;-70
2023/12/20 11:11:13;;;;;;;25.27;11.43;;;;;;;4.64;100.00;99013.63;4225043;28;20301;-72
2023/12/20 11:14:19;;;;;;;25.00;11.73;;;;;;;4.68;100.00;99005.16;4240150;28;20292;-70
2023/12/20 11:16:45;;;;;;;28.10;12.30;;;;;;;4.68;100.00;99009.69;4193426;28;20307;-71
2023/12/20 11:19:20;;;;;;;23.57;11.00;;;;;;;4.69;100.00;99005.97;4229798;28;20238;-69
2023/12/20 11:21:47;;;;;;;22.53;11.30;;;;;;;4.67;100.00;98997.25;4232869;28;20230;-70